Time;durP1;ratioP1;P1;durP2;ratioP2;P2;SDS_P1;SDS_P2;PMS_P1;PMS_P2;Temp;Humidity;BMP_temperature;BMP_pressure;BME280_temperature;BME280_humidity;BME280_pressure;Samples;Min_cycle;Max_cycle;Signal;HPM_P1;HPM_P2
2024/03/19 00:00:41;;;;;;;5.18;3.13;;;6.60;92.00;;;;;;6246201;22;20107;-83
2024/03/19 00:03:07;;;;;;;4.43;2.33;;;6.50;92.00;;;;;;6247841;22;20015;-83
2024/03/19 00:05:32;;;;;;;4.63;2.78;;;6.50;92.50;;;;;;6275721;22;20014;-83
2024/03/19 00:07:58;;;;;;;6.40;2.78;;;6.50;93.40;;;;;;6248922;22;20630;-83
2024/03/19 00:10:24;;;;;;;4.13;2.47;;;6.40;93.10;;;;;;6248600;22;20011;-83
2024/03/19 00:12:50;;;;;;;4.20;3.03;;;6.30;93.30;;;;;;6258458;22;19995;-82
2024/03/19 00:15:16;;;;;;;4.40;2.85;;;6.20;93.70;;;;;;6255038;22;20374;-83
2024/03/19 00:17:41;;;;;;;10.63;3.67;;;6.10;93.90;;;;;;6249190;22;20423;-83
2024/03/19 00:20:10;;;;;;;4.22;2.50;;;6.10;94.00;;;;;;6249470;22;20046;-83
2024/03/19 00:22:36;;;;;;;7.55;3.15;;;6.00;94.30;;;;;;6250284;22;20004;-83
2024/03/19 00:25:03;;;;;;;5.65;4.00;;;6.00;94.40;;;;;;6250934;22;19999;-83
2024/03/19 00:27:28;;;;;;;6.85;2.85;;;6.00;94.30;;;;;;6278263;22;20029;-83
2024/03/19 00:30:03;;;;;;;4.75;3.10;;;6.00;94.70;;;;;;6250655;22;20491;-83
2024/03/19 00:32:30;;;;;;;5.38;3.30;;;5.90;94.60;;;;;;6249187;22;20263;-83
2024/03/19 00:34:57;;;;;;;7.35;3.70;;;5.80;94.90;;;;;;6248604;22;20000;-83
2024/03/19 00:37:23;;;;;;;5.28;4.00;;;5.80;95.30;;;;;;6248665;22;20003;-83
2024/03/19 00:39:48;;;;;;;8.48;3.67;;;5.70;95.50;;;;;;6246882;22;20484;-83
2024/03/19 00:42:14;;;;;;;5.97;3.97;;;5.70;95.50;;;;;;6247313;22;20106;-83
2024/03/19 00:44:39;;;;;;;4.60;3.30;;;5.70;95.70;;;;;;6247413;22;20007;-83
2024/03/19 00:47:05;;;;;;;6.10;3.55;;;5.70;95.90;;;;;;6247459;22;20004;-83
2024/03/19 00:49:30;;;;;;;6.22;3.80;;;5.70;96.70;;;;;;6246372;22;20062;-83
2024/03/19 00:51:56;;;;;;;4.97;3.50;;;5.70;96.50;;;;;;6247445;22;20627;-84
2024/03/19 00:54:22;;;;;;;5.35;3.60;;;5.60;96.50;;;;;;6247320;22;20087;-83
2024/03/19 00:56:47;;;;;;;7.07;3.88;;;5.60;96.40;;;;;;6247529;22;20003;-83
2024/03/19 00:59:13;;;;;;;7.30;4.15;;;5.60;96.20;;;;;;6244803;22;19996;-83
2024/03/19 01:01:38;;;;;;;6.78;4.13;;;5.50;96.70;;;;;;6245260;22;20008;-83
2024/03/19 01:04:04;;;;;;;7.97;3.80;;;5.50;96.90;;;;;;6244939;22;20034;-83
2024/03/19 01:06:36;;;;;;;5.60;3.67;;;5.40;96.70;;;;;;6245124;22;20003;-83
2024/03/19 01:09:05;;;;;;;5.80;3.65;;;5.40;97.10;;;;;;6244028;22;20449;-83
2024/03/19 01:11:31;;;;;;;5.40;3.75;;;5.40;97.20;;;;;;6244840;22;20426;-83
2024/03/19 01:13:57;;;;;;;4.55;3.17;;;5.40;97.20;;;;;;6244676;22;20008;-83
2024/03/19 01:16:22;;;;;;;8.25;3.90;;;5.40;97.40;;;;;;6272760;22;20447;-83
2024/03/19 01:18:48;;;;;;;7.45;3.78;;;5.40;97.50;;;;;;6246139;22;20061;-83
2024/03/19 01:21:13;;;;;;;6.38;3.25;;;5.40;97.30;;;;;;6247027;22;20061;-83
2024/03/19 01:23:39;;;;;;;4.75;3.08;;;5.40;97.60;;;;;;6246969;22;20011;-83
2024/03/19 01:26:04;;;;;;;7.93;3.47;;;5.40;97.70;;;;;;6273574;22;20067;-83
2024/03/19 01:28:30;;;;;;;7.70;4.25;;;5.40;97.80;;;;;;6245423;22;20401;-83
2024/03/19 01:30:55;;;;;;;4.70;3.28;;;5.40;97.50;;;;;;6245589;22;20095;-83
2024/03/19 01:33:21;;;;;;;6.00;3.33;;;5.30;97.80;;;;;;6246158;22;20040;-83
2024/03/19 01:35:46;;;;;;;6.57;3.47;;;5.30;97.90;;;;;;6246673;22;20010;-82
2024/03/19 01:38:12;;;;;;;5.93;3.83;;;5.30;97.80;;;;;;6246628;22;20015;-83
2024/03/19 01:40:37;;;;;;;6.53;4.10;;;5.20;97.90;;;;;;6246027;22;20011;-83
2024/03/19 01:43:11;;;;;;;6.10;3.33;;;5.30;98.20;;;;;;6273632;22;20010;-83
2024/03/19 01:45:37;;;;;;;8.48;3.90;;;5.30;98.40;;;;;;6246552;22;20031;-83
2024/03/19 01:48:03;;;;;;;9.02;4.30;;;5.20;98.20;;;;;;6273597;22;20049;-83
2024/03/19 01:50:29;;;;;;;6.50;3.67;;;5.20;98.50;;;;;;6272802;22;19996;-83
2024/03/19 01:52:54;;;;;;;8.77;4.07;;;5.20;98.70;;;;;;6273902;22;20003;-83
2024/03/19 01:55:22;;;;;;;6.55;3.72;;;5.20;98.80;;;;;;6246387;22;20004;-83
2024/03/19 01:57:49;;;;;;;6.30;3.20;;;5.20;98.90;;;;;;6246736;22;20007;-83
2024/03/19 02:00:15;;;;;;;6.93;4.18;;;5.20;99.00;;;;;;6245462;22;20051;-83
2024/03/19 02:02:41;;;;;;;5.20;3.85;;;5.10;99.00;;;;;;6246929;22;20082;-83
2024/03/19 02:05:08;;;;;;;7.45;3.83;;;5.20;99.20;;;;;;6246396;22;20532;-83
2024/03/19 02:07:34;;;;;;;4.55;3.35;;;5.10;99.60;;;;;;6273581;22;20019;-82
2024/03/19 02:10:00;;;;;;;7.40;4.18;;;5.10;99.70;;;;;;6245324;22;20397;-83
2024/03/19 02:12:27;;;;;;;5.22;3.38;;;5.10;99.70;;;;;;6246057;22;20034;-83
2024/03/19 02:14:53;;;;;;;7.07;3.83;;;5.00;99.70;;;;;;6246106;22;19996;-83
2024/03/19 02:17:20;;;;;;;6.93;4.38;;;5.10;99.90;;;;;;6246585;22;20127;-83
2024/03/19 02:19:47;;;;;;;4.07;3.67;;;5.00;99.90;;;;;;6245665;22;20039;-82
2024/03/19 02:22:13;;;;;;;8.10;4.13;;;5.00;99.90;;;;;;6246900;22;20011;-83
2024/03/19 02:24:41;;;;;;;7.95;4.10;;;5.00;99.90;;;;;;6246891;22;20375;-83
2024/03/19 02:27:07;;;;;;;6.65;4.15;;;5.00;99.90;;;;;;6246620;22;20054;-83
2024/03/19 02:29:32;;;;;;;7.38;4.22;;;5.00;99.90;;;;;;6272408;22;20527;-83
2024/03/19 02:31:58;;;;;;;5.15;3.42;;;4.90;99.90;;;;;;6246218;22;20010;-83
2024/03/19 02:34:24;;;;;;;6.93;3.92;;;4.90;99.90;;;;;;6246415;22;20122;-83
2024/03/19 02:36:49;;;;;;;7.68;4.10;;;4.80;99.90;;;;;;6250018;22;19996;-83
2024/03/19 02:39:15;;;;;;;9.45;3.85;;;4.80;99.90;;;;;;6272295;22;20292;-83
2024/03/19 02:41:41;;;;;;;6.88;4.53;;;4.80;99.90;;;;;;6246610;22;20037;-83
2024/03/19 02:44:07;;;;;;;5.53;3.92;;;4.70;99.90;;;;;;6273238;22;20000;-83
2024/03/19 02:46:32;;;;;;;8.10;4.38;;;4.70;99.90;;;;;;6245917;22;20012;-83
2024/03/19 02:48:58;;;;;;;10.77;4.40;;;4.70;99.90;;;;;;6245233;22;20276;-83
2024/03/19 02:51:25;;;;;;;5.28;3.95;;;4.60;99.90;;;;;;6273335;22;19999;-83
2024/03/19 02:53:50;;;;;;;10.75;4.78;;;4.60;99.90;;;;;;6245895;22;20058;-83
2024/03/19 02:56:16;;;;;;;7.88;4.57;;;4.60;99.90;;;;;;6245884;22;20003;-83
2024/03/19 02:58:42;;;;;;;8.32;4.47;;;4.70;99.90;;;;;;6245455;22;20435;-83
2024/03/19 03:01:07;;;;;;;6.45;4.32;;;4.70;99.90;;;;;;6246902;22;20018;-83
2024/03/19 03:03:36;;;;;;;5.78;4.30;;;4.70;99.90;;;;;;6246786;22;20014;-83
2024/03/19 03:06:02;;;;;;;10.77;4.35;;;4.70;99.90;;;;;;6246622;22;20053;-83
2024/03/19 03:08:28;;;;;;;8.48;4.85;;;4.60;99.90;;;;;;6245821;22;20011;-83
2024/03/19 03:10:54;;;;;;;6.75;4.60;;;4.50;99.90;;;;;;6273940;22;19999;-82
2024/03/19 03:13:20;;;;;;;6.70;4.20;;;4.50;99.90;;;;;;6245639;22;20087;-83
2024/03/19 03:15:45;;;;;;;8.73;4.38;;;4.60;99.90;;;;;;6276600;22;19996;-83
2024/03/19 03:18:11;;;;;;;9.63;4.20;;;4.60;99.90;;;;;;6276623;22;20149;-82
2024/03/19 03:20:37;;;;;;;10.02;4.43;;;4.60;99.90;;;;;;6275985;22;20041;-83
2024/03/19 03:23:03;;;;;;;5.47;3.90;;;4.50;99.90;;;;;;6249217;22;20295;-83
2024/03/19 03:25:31;;;;;;;10.65;4.80;;;4.50;99.90;;;;;;6276772;22;20523;-82
2024/03/19 03:27:57;;;;;;;10.18;5.35;;;4.50;99.90;;;;;;6276337;22;19996;-83
2024/03/19 03:30:23;;;;;;;7.13;4.20;;;4.50;99.90;;;;;;6276170;22;20414;-83
2024/03/19 03:32:48;;;;;;;9.55;5.10;;;4.50;99.90;;;;;;6276523;22;20002;-83
2024/03/19 03:35:14;;;;;;;6.43;3.95;;;4.50;99.90;;;;;;6250441;22;20425;-83
2024/03/19 03:37:41;;;;;;;7.65;4.53;;;4.50;99.90;;;;;;6250321;22;20430;-83
2024/03/19 03:40:19;;;;;;;8.45;5.18;;;4.50;99.90;;;;;;6276561;22;20006;-83
2024/03/19 03:42:45;;;;;;;5.95;4.25;;;4.40;99.90;;;;;;6277431;22;19999;-82
2024/03/19 03:45:12;;;;;;;8.02;4.70;;;4.30;99.90;;;;;;6250228;22;20316;-83
2024/03/19 03:47:38;;;;;;;8.55;4.70;;;4.30;99.90;;;;;;6277373;22;20011;-83
2024/03/19 03:50:06;;;;;;;7.07;4.63;;;4.30;99.90;;;;;;6249872;22;20008;-83
2024/03/19 03:52:32;;;;;;;9.48;4.97;;;4.30;99.90;;;;;;6250244;22;20053;-83
2024/03/19 03:55:00;;;;;;;10.15;4.97;;;4.20;99.90;;;;;;6250096;22;20003;-83
2024/03/19 03:57:26;;;;;;;7.03;4.63;;;4.20;99.90;;;;;;6250205;22;20078;-83
2024/03/19 03:59:51;;;;;;;7.78;4.93;;;4.10;99.90;;;;;;6249144;22;20035;-83
2024/03/19 04:02:16;;;;;;;6.82;4.22;;;4.10;99.90;;;;;;6250084;22;20030;-82
2024/03/19 04:04:42;;;;;;;9.40;4.80;;;4.00;99.90;;;;;;6250148;22;20004;-83
2024/03/19 04:07:07;;;;;;;10.85;5.50;;;4.00;99.90;;;;;;6249922;22;20011;-83
2024/03/19 04:09:34;;;;;;;9.10;4.78;;;4.00;99.90;;;;;;6249516;22;20042;-82
2024/03/19 04:11:59;;;;;;;7.30;5.30;;;4.00;99.90;;;;;;6277051;22;20361;-83
2024/03/19 04:14:26;;;;;;;12.55;6.13;;;4.00;99.90;;;;;;6249785;22;20019;-83
2024/03/19 04:16:51;;;;;;;11.65;4.97;;;3.90;99.90;;;;;;6249781;22;20045;-83
2024/03/19 04:19:17;;;;;;;8.00;5.20;;;3.90;99.90;;;;;;6249245;22;20381;-83
2024/03/19 04:21:43;;;;;;;8.70;4.88;;;3.90;99.90;;;;;;6276948;22;20030;-83
2024/03/19 04:24:09;;;;;;;10.23;5.25;;;3.90;99.90;;;;;;6249823;22;20729;-83
2024/03/19 04:26:36;;;;;;;9.63;4.90;;;3.90;99.90;;;;;;6277011;22;20007;-83
2024/03/19 04:29:03;;;;;;;7.75;4.82;;;3.80;99.90;;;;;;6249329;22;20008;-83
2024/03/19 04:31:28;;;;;;;8.75;5.80;;;3.80;99.90;;;;;;6250182;22;20000;-82
2024/03/19 04:33:54;;;;;;;10.70;4.82;;;3.80;99.90;;;;;;6249860;22;19999;-83
2024/03/19 04:36:19;;;;;;;11.23;5.97;;;3.80;99.90;;;;;;6249958;22;20028;-83
2024/03/19 04:38:45;;;;;;;9.52;5.60;;;3.80;99.90;;;;;;6276044;22;20381;-83
2024/03/19 04:41:12;;;;;;;10.98;5.18;;;3.70;99.90;;;;;;6249340;22;20004;-83
2024/03/19 04:43:37;;;;;;;10.80;5.30;;;3.70;99.90;;;;;;6276943;22;20011;-82
2024/03/19 04:46:03;;;;;;;8.30;4.60;;;3.70;99.90;;;;;;6249295;22;20035;-83
2024/03/19 04:48:35;;;;;;;9.27;5.85;;;3.70;99.90;;;;;;6276428;22;20011;-82
2024/03/19 04:51:01;;;;;;;6.82;5.32;;;3.70;99.90;;;;;;6276374;22;20075;-83
2024/03/19 04:53:26;;;;;;;11.13;5.60;;;3.70;99.90;;;;;;6249755;22;20101;-82
2024/03/19 04:55:53;;;;;;;9.90;5.22;;;3.70;99.90;;;;;;6248510;22;20004;-83
2024/03/19 04:58:18;;;;;;;10.35;5.05;;;3.60;99.90;;;;;;6249481;22;20003;-83
2024/03/19 05:00:44;;;;;;;10.25;5.60;;;3.60;99.90;;;;;;6277932;22;20007;-83
2024/03/19 05:03:09;;;;;;;9.75;6.05;;;3.60;99.90;;;;;;6255579;22;20082;-82
2024/03/19 05:05:35;;;;;;;13.10;6.15;;;3.60;99.90;;;;;;6251732;22;20010;-83
2024/03/19 05:08:00;;;;;;;10.32;5.55;;;3.50;99.90;;;;;;6251388;22;20004;-83
2024/03/19 05:10:26;;;;;;;8.85;5.78;;;3.50;99.90;;;;;;6248116;22;20057;-83
2024/03/19 05:12:51;;;;;;;10.32;5.75;;;3.50;99.90;;;;;;6247791;22;20058;-83
2024/03/19 05:15:17;;;;;;;9.27;5.82;;;3.50;99.90;;;;;;6274998;22;20010;-83
2024/03/19 05:17:42;;;;;;;10.80;5.53;;;3.50;99.90;;;;;;6248675;22;20098;-83
2024/03/19 05:20:08;;;;;;;7.72;6.22;;;3.50;99.90;;;;;;6248881;22;20011;-83
2024/03/19 05:22:33;;;;;;;11.85;6.47;;;3.40;99.90;;;;;;6249355;22;20063;-83
2024/03/19 05:24:59;;;;;;;12.50;6.28;;;3.40;99.90;;;;;;6249235;22;20020;-82
2024/03/19 05:27:25;;;;;;;8.45;6.03;;;3.40;99.90;;;;;;6249269;22;20008;-83
2024/03/19 05:29:50;;;;;;;11.40;5.95;;;3.40;99.90;;;;;;6248653;22;20031;-83
2024/03/19 05:32:16;;;;;;;12.13;6.00;;;3.40;99.90;;;;;;6249189;22;20000;-83
2024/03/19 05:34:41;;;;;;;10.00;5.95;;;3.40;99.90;;;;;;6248864;22;20487;-82
2024/03/19 05:37:07;;;;;;;11.40;6.07;;;3.40;99.90;;;;;;6249279;22;20010;-83
2024/03/19 05:39:33;;;;;;;10.57;6.20;;;3.50;99.90;;;;;;6248669;22;20457;-83
2024/03/19 05:41:59;;;;;;;8.52;5.97;;;3.50;99.90;;;;;;6276190;22;19999;-83
2024/03/19 05:44:24;;;;;;;12.05;6.38;;;3.50;99.90;;;;;;6276373;22;20677;-83
2024/03/19 05:46:50;;;;;;;17.85;7.88;;;3.50;99.90;;;;;;6249068;22;20497;-83
2024/03/19 05:49:16;;;;;;;10.27;6.72;;;3.60;99.90;;;;;;6275513;22;20011;-82
2024/03/19 05:51:42;;;;;;;10.20;6.65;;;3.60;99.90;;;;;;6249391;22;20106;-83
2024/03/19 05:54:08;;;;;;;9.55;6.88;;;3.60;99.90;;;;;;6249096;22;20007;-83
2024/03/19 05:56:33;;;;;;;13.05;6.57;;;3.60;99.90;;;;;;6275824;22;20330;-83
2024/03/19 05:58:59;;;;;;;11.75;6.47;;;3.70;99.90;;;;;;6248282;22;20076;-83
2024/03/19 06:01:24;;;;;;;11.05;6.85;;;3.60;99.90;;;;;;6276014;22;20833;-83
2024/03/19 06:03:50;;;;;;;13.65;6.82;;;3.60;99.90;;;;;;6248822;22;20369;-83
2024/03/19 06:06:15;;;;;;;14.27;6.40;;;3.70;99.90;;;;;;6248867;22;20007;-83
2024/03/19 06:08:41;;;;;;;12.80;6.18;;;3.70;99.90;;;;;;6248430;22;20035;-83
2024/03/19 06:11:10;;;;;;;10.18;6.40;;;3.70;99.90;;;;;;6248889;22;20004;-83
2024/03/19 06:13:35;;;;;;;12.88;6.75;;;3.80;99.90;;;;;;6248940;22;20004;-84
2024/03/19 06:16:01;;;;;;;11.40;6.15;;;3.80;99.90;;;;;;6248872;22;20000;-84
2024/03/19 06:18:27;;;;;;;14.27;7.13;;;3.80;99.90;;;;;;6248717;22;20205;-84
2024/03/19 06:20:53;;;;;;;10.18;5.85;;;3.90;99.90;;;;;;6248318;22;20015;-84
2024/03/19 06:23:18;;;;;;;10.10;6.38;;;3.90;99.90;;;;;;6248746;22;20580;-85
2024/03/19 06:25:44;;;;;;;10.00;6.70;;;3.90;99.90;;;;;;6249523;22;20125;-85
2024/03/19 06:28:10;;;;;;;12.07;6.65;;;4.00;99.90;;;;;;6275332;22;20014;-84
2024/03/19 06:30:36;;;;;;;11.98;7.22;;;4.00;99.90;;;;;;6247681;22;20000;-84
2024/03/19 06:33:02;;;;;;;10.63;6.82;;;4.10;99.90;;;;;;6248796;22;20010;-84
2024/03/19 06:35:30;;;;;;;10.20;6.80;;;4.10;99.90;;;;;;6248928;22;20026;-84
2024/03/19 06:37:56;;;;;;;11.20;6.38;;;4.10;99.90;;;;;;6248678;22;20003;-85
2024/03/19 06:40:22;;;;;;;9.90;6.65;;;4.20;99.90;;;;;;6248060;22;20000;-84
2024/03/19 06:42:47;;;;;;;14.88;7.25;;;4.30;99.90;;;;;;6248826;22;20006;-84
2024/03/19 06:45:13;;;;;;;9.38;6.22;;;4.40;99.90;;;;;;6276661;22;20007;-85
2024/03/19 06:47:38;;;;;;;12.95;6.60;;;4.50;99.90;;;;;;6277932;22;19999;-85
2024/03/19 06:50:07;;;;;;;9.73;6.70;;;4.50;99.90;;;;;;6250082;22;20004;-84
2024/03/19 06:52:35;;;;;;;13.02;7.00;;;4.60;99.90;;;;;;6250665;22;19995;-84
2024/03/19 06:55:00;;;;;;;10.88;6.65;;;4.70;99.90;;;;;;6250537;22;19999;-84
2024/03/19 06:57:27;;;;;;;10.75;7.10;;;4.80;99.90;;;;;;6277877;22;20026;-85
2024/03/19 06:59:53;;;;;;;11.55;6.70;;;4.90;99.90;;;;;;6250462;22;20057;-85
2024/03/19 07:02:18;;;;;;;12.88;6.75;;;5.00;99.90;;;;;;6250659;22;20385;-84
2024/03/19 07:04:45;;;;;;;10.85;7.25;;;5.10;99.90;;;;;;6250691;22;20000;-85
2024/03/19 07:07:13;;;;;;;11.00;6.63;;;5.20;99.90;;;;;;6250617;22;20082;-84
2024/03/19 07:09:40;;;;;;;11.55;6.95;;;5.30;99.90;;;;;;6250245;22;20014;-85
2024/03/19 07:12:06;;;;;;;10.48;6.63;;;5.50;99.90;;;;;;6250519;22;20431;-83
2024/03/19 07:14:31;;;;;;;11.80;6.95;;;5.60;99.90;;;;;;6251840;22;20422;-85
2024/03/19 07:16:57;;;;;;;10.55;6.85;;;5.80;99.90;;;;;;6280030;22;20014;-84
2024/03/19 07:19:22;;;;;;;13.82;6.60;;;5.90;99.90;;;;;;6258766;22;20000;-85
2024/03/19 07:21:48;;;;;;;13.68;7.22;;;6.00;99.90;;;;;;6253114;22;20435;-85
2024/03/19 07:24:13;;;;;;;10.80;6.22;;;6.00;99.90;;;;;;6277779;22;20308;-85
2024/03/19 07:26:39;;;;;;;11.38;6.85;;;6.10;99.90;;;;;;6277764;22;20042;-85
2024/03/19 07:29:04;;;;;;;12.52;6.75;;;6.20;99.90;;;;;;6276802;22;19999;-85
2024/03/19 07:31:30;;;;;;;10.55;6.65;;;6.30;99.90;;;;;;6250686;22;20000;-84
2024/03/19 07:33:55;;;;;;;12.15;7.07;;;6.40;99.90;;;;;;6250457;22;19999;-85
2024/03/19 07:36:21;;;;;;;9.93;6.80;;;6.50;99.90;;;;;;6250133;22;20035;-85
2024/03/19 07:38:47;;;;;;;9.27;6.50;;;6.50;99.90;;;;;;6249939;22;20011;-85
2024/03/19 07:41:12;;;;;;;9.88;7.10;;;6.60;99.90;;;;;;6250354;22;20004;-85
2024/03/19 07:43:38;;;;;;;9.45;6.45;;;6.80;99.90;;;;;;6250747;22;20457;-85
2024/03/19 07:46:03;;;;;;;12.32;7.03;;;6.90;99.90;;;;;;6250194;22;20635;-85
2024/03/19 07:48:29;;;;;;;12.35;7.05;;;7.00;99.90;;;;;;6249978;22;20003;-85
2024/03/19 07:50:57;;;;;;;11.52;6.28;;;7.20;99.80;;;;;;6250166;22;20000;-85
2024/03/19 07:53:23;;;;;;;13.25;6.40;;;7.40;99.00;;;;;;6277319;22;20022;-85
2024/03/19 07:55:48;;;;;;;8.45;6.40;;;7.50;98.80;;;;;;6250055;22;20027;-85
2024/03/19 07:58:14;;;;;;;9.20;6.00;;;7.60;98.60;;;;;;6250120;22;20008;-85
2024/03/19 08:00:39;;;;;;;10.75;6.50;;;7.70;98.50;;;;;;6249930;22;20006;-84
2024/03/19 08:03:05;;;;;;;10.52;6.38;;;7.80;98.50;;;;;;6277337;22;20045;-85
2024/03/19 08:05:31;;;;;;;28.70;16.00;;;7.90;98.10;;;;;;6250239;22;20007;-85
2024/03/19 08:07:56;;;;;;;44.72;21.75;;;7.90;97.50;;;;;;6250627;22;20011;-85
2024/03/19 08:10:22;;;;;;;29.67;16.58;;;7.80;97.30;;;;;;6249600;22;20335;-85
2024/03/19 08:12:48;;;;;;;16.35;10.25;;;7.80;97.70;;;;;;6250944;22;20008;-85
2024/03/19 08:15:13;;;;;;;17.23;7.50;;;7.80;97.70;;;;;;6250040;22;20386;-85
2024/03/19 08:17:39;;;;;;;10.32;6.30;;;7.70;96.80;;;;;;6250103;22;20330;-85
2024/03/19 08:20:08;;;;;;;10.90;6.97;;;7.80;97.60;;;;;;6249535;22;20011;-85
2024/03/19 08:22:34;;;;;;;8.48;5.35;;;7.90;96.20;;;;;;6249902;22;20008;-85
2024/03/19 08:25:01;;;;;;;8.52;6.05;;;7.80;95.70;;;;;;6250244;22;20008;-84
2024/03/19 08:27:26;;;;;;;7.78;5.32;;;8.00;95.80;;;;;;6249965;22;20099;-84
2024/03/19 08:29:52;;;;;;;8.88;5.07;;;8.00;94.80;;;;;;6249295;22;20026;-85
2024/03/19 08:32:18;;;;;;;9.57;5.97;;;8.00;94.50;;;;;;6250155;22;20480;-85
2024/03/19 08:34:43;;;;;;;12.35;5.30;;;8.10;95.10;;;;;;6249910;22;20000;-85
2024/03/19 08:37:10;;;;;;;7.10;5.13;;;8.20;94.40;;;;;;6249842;22;20058;-85
2024/03/19 08:39:35;;;;;;;10.70;5.65;;;8.20;94.20;;;;;;6249403;22;20007;-85
2024/03/19 08:42:01;;;;;;;10.57;5.82;;;8.40;93.80;;;;;;6276846;22;20396;-85
2024/03/19 08:44:26;;;;;;;7.00;5.15;;;8.50;93.70;;;;;;6276913;22;20034;-85
2024/03/19 08:46:52;;;;;;;11.35;5.50;;;8.70;93.50;;;;;;6249745;22;20008;-85
2024/03/19 08:49:18;;;;;;;10.35;6.03;;;8.70;92.10;;;;;;6249247;22;20014;-85
2024/03/19 08:51:44;;;;;;;9.00;5.63;;;8.80;92.40;;;;;;6249597;22;20000;-85
2024/03/19 08:54:11;;;;;;;7.18;4.95;;;8.90;92.20;;;;;;6276637;22;20006;-85
2024/03/19 08:56:37;;;;;;;12.98;6.18;;;9.00;92.90;;;;;;6249374;22;20642;-85
2024/03/19 08:59:03;;;;;;;10.57;5.07;;;9.20;93.10;;;;;;6249125;22;20003;-85
2024/03/19 09:01:28;;;;;;;8.73;5.30;;;9.90;91.90;;;;;;6249307;22;20008;-85
2024/03/19 09:03:54;;;;;;;10.57;5.55;;;10.40;90.30;;;;;;6249346;22;20019;-85
2024/03/19 09:06:20;;;;;;;7.55;5.05;;;11.20;88.50;;;;;;6249506;22;20004;-85
2024/03/19 09:08:46;;;;;;;9.07;5.63;;;11.50;87.40;;;;;;6275737;22;20003;-85
2024/03/19 09:11:11;;;;;;;10.73;6.10;;;11.70;84.90;;;;;;6277239;22;20077;-85
2024/03/19 09:13:37;;;;;;;8.00;5.43;;;12.10;86.70;;;;;;6249360;22;20008;-85
2024/03/19 09:16:03;;;;;;;7.95;5.30;;;12.10;85.50;;;;;;6276414;22;20000;-84
2024/03/19 09:18:30;;;;;;;7.50;5.32;;;12.50;86.90;;;;;;6275816;22;20000;-86
2024/03/19 09:20:55;;;;;;;9.48;5.88;;;13.00;83.60;;;;;;6275729;22;20011;-88
2024/03/19 09:23:23;;;;;;;7.30;5.05;;;13.60;79.30;;;;;;6248623;22;20066;-85
2024/03/19 09:25:49;;;;;;;7.40;4.63;;;13.60;77.70;;;;;;6275527;22;20029;-85
2024/03/19 09:28:15;;;;;;;5.82;4.55;;;13.80;77.10;;;;;;6248358;22;20004;-86
2024/03/19 09:30:40;;;;;;;7.63;5.30;;;13.80;76.10;;;;;;6248252;22;20004;-86
2024/03/19 09:33:07;;;;;;;6.43;4.93;;;14.40;74.40;;;;;;6248813;22;20073;-86
2024/03/19 09:35:34;;;;;;;7.68;4.55;;;14.80;74.50;;;;;;6249135;22;20445;-86
2024/03/19 09:38:00;;;;;;;11.05;5.10;;;14.90;75.60;;;;;;6249897;22;20053;-86
2024/03/19 09:40:27;;;;;;;8.13;5.20;;;15.00;73.60;;;;;;6248802;22;20004;-85
2024/03/19 09:42:53;;;;;;;8.18;5.30;;;14.50;71.70;;;;;;6249707;22;20007;-85
2024/03/19 09:45:29;;;;;;;6.43;4.85;;;13.70;74.20;;;;;;6276470;22;20006;-86
2024/03/19 09:47:55;;;;;;;8.18;5.03;;;15.00;73.40;;;;;;6276598;22;19996;-85
2024/03/19 09:50:22;;;;;;;7.45;5.35;;;16.00;70.50;;;;;;6248331;22;20008;-86
2024/03/19 09:52:50;;;;;;;6.97;4.80;;;17.40;67.90;;;;;;6248911;22;20014;-86
2024/03/19 09:55:17;;;;;;;9.05;4.55;;;18.40;64.90;;;;;;6249032;22;20012;-87
2024/03/19 09:57:45;;;;;;;7.00;5.15;;;19.30;64.40;;;;;;6275768;22;20079;-87
2024/03/19 10:00:19;;;;;;;7.30;4.75;;;19.40;62.20;;;;;;6248213;22;20003;-87
2024/03/19 10:02:45;;;;;;;6.43;4.82;;;19.10;62.50;;;;;;6275578;22;20079;-86
2024/03/19 10:05:14;;;;;;;7.78;4.63;;;18.80;62.10;;;;;;6247952;22;20099;-85
2024/03/19 10:07:40;;;;;;;7.23;4.57;;;18.70;61.90;;;;;;6247885;22;20335;-85
2024/03/19 10:10:06;;;;;;;14.13;4.63;;;18.80;63.00;;;;;;6284733;22;19992;-85
2024/03/19 10:12:32;;;;;;;7.60;4.90;;;19.00;63.50;;;;;;6253183;22;20000;-86
2024/03/19 10:15:04;;;;;;;7.85;5.28;;;18.70;65.90;;;;;;6248915;22;20308;-85
2024/03/19 10:17:30;;;;;;;8.10;5.85;;;18.40;66.10;;;;;;6248120;22;20003;-85
2024/03/19 10:19:56;;;;;;;9.88;5.50;;;18.60;65.40;;;;;;6246995;22;20430;-85
2024/03/19 10:22:22;;;;;;;8.10;6.00;;;17.90;62.00;;;;;;6275344;22;20423;-85
2024/03/19 10:24:47;;;;;;;8.00;6.05;;;17.50;62.60;;;;;;6248002;22;20011;-85
2024/03/19 10:27:16;;;;;;;9.18;6.40;;;17.90;63.40;;;;;;6247527;22;20003;-85
2024/03/19 10:29:44;;;;;;;10.27;6.38;;;18.00;61.90;;;;;;6246608;22;20385;-85
2024/03/19 10:32:10;;;;;;;11.48;6.60;;;17.90;63.00;;;;;;6247369;22;20295;-85
2024/03/19 10:34:36;;;;;;;8.77;5.68;;;17.60;61.50;;;;;;6247862;22;20007;-85
2024/03/19 10:37:02;;;;;;;10.23;6.63;;;17.80;65.00;;;;;;6274880;22;20000;-85
2024/03/19 10:39:28;;;;;;;11.15;6.65;;;18.30;61.60;;;;;;6247141;22;20018;-85
2024/03/19 10:41:55;;;;;;;9.15;6.15;;;18.50;61.10;;;;;;6247543;22;20004;-85
2024/03/19 10:44:22;;;;;;;10.95;7.15;;;18.80;62.00;;;;;;6221852;22;20358;-86
2024/03/19 10:46:49;;;;;;;9.32;6.07;;;19.00;59.80;;;;;;6274482;22;20007;-85
2024/03/19 10:49:18;;;;;;;9.93;6.95;;;18.80;61.70;;;;;;6247215;22;20338;-85
2024/03/19 10:51:47;;;;;;;17.52;7.10;;;18.40;61.60;;;;;;6247531;22;20004;-85
2024/03/19 10:54:15;;;;;;;11.18;7.55;;;18.00;62.80;;;;;;6274927;22;19992;-84
2024/03/19 10:56:42;;;;;;;10.93;7.00;;;17.00;63.30;;;;;;6248032;22;20000;-86
2024/03/19 10:59:15;;;;;;;11.30;7.00;;;16.30;65.60;;;;;;6243912;22;20065;-85
2024/03/19 11:01:50;;;;;;;13.30;7.05;;;16.20;66.90;;;;;;6244021;22;20095;-85
2024/03/19 11:04:16;;;;;;;13.70;7.30;;;15.90;67.20;;;;;;6244000;22;20004;-85
2024/03/19 11:06:53;;;;;;;11.80;7.40;;;15.80;68.00;;;;;;6244218;22;20139;-86
2024/03/19 11:09:21;;;;;;;9.85;7.28;;;15.50;68.60;;;;;;6243318;22;20008;-85
2024/03/19 11:11:55;;;;;;;9.75;6.57;;;14.90;69.40;;;;;;6244293;22;20023;-88
2024/03/19 11:14:23;;;;;;;10.40;6.75;;;14.80;70.80;;;;;;6247174;22;20003;-86
2024/03/19 11:16:49;;;;;;;10.85;6.40;;;15.10;71.30;;;;;;6273642;22;20077;-86
2024/03/19 11:19:22;;;;;;;10.65;6.50;;;15.60;71.70;;;;;;6242553;22;20003;-84
2024/03/19 11:21:52;;;;;;;10.10;7.18;;;15.90;69.40;;;;;;6243510;22;20017;-85
2024/03/19 11:24:28;;;;;;;13.30;7.15;;;15.70;69.90;;;;;;6245994;22;20008;-86
2024/03/19 11:26:57;;;;;;;10.65;6.70;;;16.00;69.80;;;;;;6246154;22;20008;-86
2024/03/19 11:29:27;;;;;;;8.10;6.30;;;16.40;70.50;;;;;;6245368;22;20091;-84
2024/03/19 11:31:56;;;;;;;11.13;6.25;;;15.90;69.80;;;;;;6272791;22;20053;-86
2024/03/19 11:34:22;;;;;;;11.80;7.43;;;15.50;70.70;;;;;;6247824;22;20640;-86
2024/03/19 11:36:48;;;;;;;11.43;7.30;;;15.20;70.80;;;;;;6248532;22;20087;-86
2024/03/19 11:39:14;;;;;;;9.23;5.82;;;15.40;72.20;;;;;;6275350;22;20000;-86
2024/03/19 11:41:41;;;;;;;9.48;6.78;;;15.80;70.50;;;;;;6275385;22;20000;-86
2024/03/19 11:44:08;;;;;;;10.10;6.38;;;16.30;71.30;;;;;;6248181;22;20000;-86
2024/03/19 11:46:34;;;;;;;11.65;6.07;;;16.90;71.90;;;;;;6247903;22;20396;-86
2024/03/19 11:48:59;;;;;;;10.65;6.65;;;17.50;70.30;;;;;;6274747;22;19996;-86
2024/03/19 11:51:25;;;;;;;11.88;6.78;;;18.60;67.00;;;;;;6275192;22;20007;-86
2024/03/19 11:54:00;;;;;;;7.00;5.80;;;18.50;65.60;;;;;;6275276;22;20000;-86
2024/03/19 11:56:25;;;;;;;8.23;6.18;;;19.60;65.40;;;;;;6249597;22;20027;-86
2024/03/19 11:58:51;;;;;;;7.63;6.60;;;20.20;63.50;;;;;;6247614;22;20288;-86
2024/03/19 12:01:16;;;;;;;9.52;6.93;;;19.90;63.60;;;;;;6274186;22;20041;-86
2024/03/19 12:03:42;;;;;;;9.77;6.15;;;20.90;63.50;;;;;;6247292;22;20007;-87
2024/03/19 12:06:08;;;;;;;9.60;6.47;;;21.70;63.70;;;;;;6247329;22;20011;-87
2024/03/19 12:08:34;;;;;;;13.57;7.13;;;22.60;62.20;;;;;;6246590;22;20004;-85
2024/03/19 12:11:04;;;;;;;7.57;5.75;;;23.30;60.80;;;;;;6246554;22;20000;-86
2024/03/19 12:13:29;;;;;;;10.05;7.53;;;23.50;60.90;;;;;;6273744;22;20331;-85
2024/03/19 12:15:55;;;;;;;8.13;6.20;;;23.50;61.00;;;;;;6273784;22;20000;-87
2024/03/19 12:18:20;;;;;;;9.60;7.20;;;23.30;60.40;;;;;;6273550;22;20026;-84
2024/03/19 12:20:48;;;;;;;9.18;6.20;;;23.40;57.60;;;;;;6272167;22;20016;-83
2024/03/19 12:23:13;;;;;;;11.98;7.13;;;23.20;59.30;;;;;;6245381;22;20462;-84
2024/03/19 12:25:40;;;;;;;10.20;7.57;;;22.40;59.10;;;;;;6273455;22;20004;-84
2024/03/19 12:28:07;;;;;;;11.55;7.63;;;22.20;59.40;;;;;;6246176;22;20004;-83
2024/03/19 12:30:33;;;;;;;10.40;6.57;;;22.00;61.00;;;;;;6245832;22;20007;-86
2024/03/19 12:33:00;;;;;;;11.18;7.57;;;22.10;62.60;;;;;;6273437;22;20030;-85
2024/03/19 12:35:26;;;;;;;9.93;7.43;;;21.60;62.50;;;;;;6246393;22;20004;-85
2024/03/19 12:37:52;;;;;;;11.02;8.10;;;21.40;63.20;;;;;;6245724;22;20053;-86
2024/03/19 12:40:18;;;;;;;15.77;8.45;;;20.80;62.90;;;;;;6244776;22;20008;-85
2024/03/19 12:42:47;;;;;;;16.70;8.90;;;20.30;63.50;;;;;;6272043;22;20006;-82
2024/03/19 12:45:15;;;;;;;13.82;8.25;;;19.80;65.20;;;;;;6272778;22;20003;-84